createdAt,value
2018-02-25T00:02:01.204Z,8.53
2018-02-25T00:04:28.706Z,4.57
2018-02-25T00:06:56.216Z,5.47
2018-02-25T00:09:23.761Z,6.23
2018-02-25T00:11:51.284Z,5.23
2018-02-25T00:14:18.801Z,6.90
2018-02-25T00:16:46.319Z,5.27
2018-02-25T00:19:13.861Z,5.87
2018-02-25T00:21:41.369Z,4.93
2018-02-25T00:24:08.911Z,4.90
2018-02-25T00:26:36.450Z,7.23
2018-02-25T00:29:03.949Z,5.27
2018-02-25T00:31:31.476Z,6.63
2018-02-25T00:33:59.004Z,6.27
2018-02-25T00:36:26.535Z,5.33
2018-02-25T00:38:54.034Z,8.17
2018-02-25T00:41:21.555Z,4.20
2018-02-25T00:43:49.061Z,5.40
2018-02-25T00:46:16.582Z,5.27
2018-02-25T00:48:44.065Z,5.40
2018-02-25T00:51:11.533Z,5.70
2018-02-25T00:53:39.022Z,6.83
2018-02-25T00:56:06.541Z,6.47
2018-02-25T00:58:34.017Z,4.93
2018-02-25T01:01:01.679Z,7.77
2018-02-25T01:03:29.245Z,7.90
2018-02-25T01:05:57.206Z,9.33
2018-02-25T01:08:24.697Z,6.80
2018-02-25T01:10:52.208Z,5.53
2018-02-25T01:13:19.746Z,5.33
2018-02-25T01:15:47.310Z,6.53
2018-02-25T01:18:15.101Z,5.40
2018-02-25T01:20:42.809Z,7.43
2018-02-25T01:23:10.606Z,5.57
2018-02-25T01:25:38.095Z,6.00
2018-02-25T01:28:05.633Z,5.90
2018-02-25T01:30:33.143Z,6.93
2018-02-25T01:33:00.639Z,5.47
2018-02-25T01:35:28.147Z,6.17
2018-02-25T01:37:55.864Z,5.30
2018-02-25T01:40:23.403Z,5.93
2018-02-25T01:42:50.942Z,6.47
2018-02-25T01:45:18.446Z,7.53
2018-02-25T01:47:46.059Z,8.07
2018-02-25T01:50:13.543Z,6.50
2018-02-25T01:52:41.106Z,7.77
2018-02-25T01:55:08.602Z,5.53
2018-02-25T01:57:36.140Z,6.47
2018-02-25T02:00:03.684Z,4.97
2018-02-25T02:02:31.181Z,5.90
2018-02-25T02:04:58.716Z,5.80
2018-02-25T02:07:26.289Z,9.43
2018-02-25T02:09:53.818Z,6.37
2018-02-25T02:12:21.495Z,5.73
2018-02-25T02:14:49.000Z,7.33
2018-02-25T02:17:16.494Z,7.93
2018-02-25T02:19:44.069Z,5.60
2018-02-25T02:22:11.597Z,5.77
2018-02-25T02:24:39.376Z,9.60
2018-02-25T02:27:06.883Z,5.93
2018-02-25T02:29:34.398Z,6.50
2018-02-25T02:32:01.899Z,8.67
2018-02-25T02:34:29.380Z,5.30
2018-02-25T02:36:56.895Z,8.43
2018-02-25T02:39:24.392Z,6.17
2018-02-25T02:41:52.054Z,5.33
2018-02-25T02:44:19.580Z,8.13
2018-02-25T02:46:47.091Z,8.37
2018-02-25T02:49:14.600Z,6.27
2018-02-25T02:51:42.179Z,6.73
2018-02-25T02:54:09.697Z,7.30
2018-02-25T02:56:37.283Z,8.77
2018-02-25T02:59:04.807Z,5.10
2018-02-25T03:01:32.391Z,7.43
2018-02-25T03:03:59.957Z,4.73
2018-02-25T03:06:27.454Z,6.03
2018-02-25T03:08:55.021Z,9.87
2018-02-25T03:11:22.539Z,6.10
2018-02-25T03:13:50.135Z,8.73
2018-02-25T03:16:17.630Z,7.87
2018-02-25T03:18:45.158Z,5.43
2018-02-25T03:21:12.646Z,6.03
2018-02-25T03:23:40.145Z,5.80
2018-02-25T03:26:07.658Z,6.83
2018-02-25T03:28:35.147Z,8.80
2018-02-25T03:31:02.883Z,6.97
2018-02-25T03:33:30.417Z,7.37
2018-02-25T03:35:57.941Z,6.67
2018-02-25T03:38:25.423Z,4.70
2018-02-25T03:40:52.930Z,9.00
2018-02-25T03:43:20.436Z,7.23
2018-02-25T03:45:47.970Z,7.40
2018-02-25T03:48:15.464Z,8.07
2018-02-25T03:50:43.083Z,9.90
2018-02-25T03:53:10.591Z,8.27
2018-02-25T03:55:38.144Z,5.63
2018-02-25T03:58:05.770Z,5.73
2018-02-25T04:00:33.246Z,8.77
2018-02-25T04:03:01.949Z,7.67
2018-02-25T04:05:29.459Z,6.60
2018-02-25T04:07:56.970Z,5.27
2018-02-25T04:10:24.479Z,6.23
2018-02-25T04:12:51.972Z,6.23
2018-02-25T04:15:19.480Z,5.80
2018-02-25T04:17:47.015Z,7.17
2018-02-25T04:20:14.569Z,6.50
2018-02-25T04:22:42.068Z,7.53
2018-02-25T04:25:09.620Z,8.23
2018-02-25T04:27:37.147Z,7.83
2018-02-25T04:30:04.694Z,7.17
2018-02-25T04:32:32.224Z,6.93
2018-02-25T04:34:59.826Z,6.57
2018-02-25T04:37:27.325Z,9.27
2018-02-25T04:39:54.846Z,5.67
2018-02-25T04:42:22.318Z,6.23
2018-02-25T04:44:49.823Z,7.00
2018-02-25T04:47:17.360Z,6.80
2018-02-25T04:49:44.877Z,9.30
2018-02-25T04:52:12.370Z,10.60
2018-02-25T04:54:39.872Z,8.50
2018-02-25T04:57:07.404Z,5.33
2018-02-25T04:59:34.891Z,7.73
2018-02-25T05:02:02.391Z,12.03
2018-02-25T05:04:29.913Z,9.07
2018-02-25T05:06:57.452Z,7.73
2018-02-25T05:09:24.998Z,7.33
2018-02-25T05:11:52.493Z,8.90
2018-02-25T05:14:20.033Z,6.80
2018-02-25T05:16:47.528Z,8.83
2018-02-25T05:19:15.026Z,6.57
2018-02-25T05:21:42.533Z,7.23
2018-02-25T05:24:10.074Z,6.43
2018-02-25T05:26:37.617Z,9.87
2018-02-25T05:29:05.124Z,11.23
2018-02-25T05:31:33.247Z,6.87
2018-02-25T05:34:00.848Z,7.07
2018-02-25T05:36:28.363Z,7.93
2018-02-25T05:38:55.953Z,11.47
2018-02-25T05:41:23.645Z,6.90
2018-02-25T05:43:51.154Z,7.93
2018-02-25T05:46:19.032Z,9.13
2018-02-25T05:48:46.724Z,6.67
2018-02-25T05:51:14.259Z,6.07
2018-02-25T05:53:41.778Z,7.53
2018-02-25T05:56:09.282Z,8.17
2018-02-25T05:58:36.998Z,7.63
2018-02-25T06:01:04.554Z,8.77
2018-02-25T06:03:32.082Z,7.77
2018-02-25T06:05:59.550Z,8.13
2018-02-25T06:08:27.114Z,7.20
2018-02-25T06:10:54.657Z,7.20
2018-02-25T06:13:22.128Z,6.17
2018-02-25T06:15:49.621Z,8.70
2018-02-25T06:18:17.173Z,5.93
2018-02-25T06:20:44.794Z,12.37
2018-02-25T06:23:12.389Z,9.17
2018-02-25T06:25:39.972Z,7.53
2018-02-25T06:28:07.732Z,10.53
2018-02-25T06:30:35.246Z,5.60
2018-02-25T06:33:02.786Z,9.60
2018-02-25T06:35:30.290Z,7.87
2018-02-25T06:37:57.778Z,8.70
2018-02-25T06:40:25.281Z,10.43
2018-02-25T06:42:52.788Z,11.97
2018-02-25T06:45:20.306Z,8.40
2018-02-25T06:47:48.015Z,7.23
2018-02-25T06:50:15.548Z,6.33
2018-02-25T06:52:43.096Z,11.97
2018-02-25T06:55:10.582Z,12.87
2018-02-25T06:57:38.082Z,13.10
2018-02-25T07:00:05.661Z,9.93
2018-02-25T07:02:33.356Z,12.27
2018-02-25T07:05:00.929Z,11.37
2018-02-25T07:07:28.473Z,11.50
2018-02-25T07:09:56.050Z,8.77
2018-02-25T07:12:23.599Z,11.77
2018-02-25T07:14:51.224Z,9.03
2018-02-25T07:17:18.832Z,6.77
2018-02-25T07:19:46.353Z,8.33
2018-02-25T07:22:14.093Z,11.57
2018-02-25T07:24:42.300Z,7.00
2018-02-25T07:27:09.972Z,7.80
2018-02-25T07:29:37.637Z,8.80
2018-02-25T07:32:05.419Z,6.87
2018-02-25T07:34:33.193Z,10.73
2018-02-25T07:37:00.906Z,9.17
2018-02-25T07:39:28.461Z,8.10
2018-02-25T07:41:56.219Z,8.90
2018-02-25T07:44:23.915Z,8.97
2018-02-25T07:46:52.170Z,6.53
2018-02-25T07:49:19.741Z,6.13
2018-02-25T07:51:47.347Z,9.03
2018-02-25T07:54:14.938Z,9.80
2018-02-25T07:56:42.542Z,7.40
2018-02-25T07:59:10.100Z,8.00
2018-02-25T08:01:37.839Z,6.53
2018-02-25T08:04:05.703Z,9.53
2018-02-25T08:06:33.271Z,9.77
2018-02-25T08:09:01.044Z,9.77
2018-02-25T08:11:29.162Z,8.70
2018-02-25T08:13:58.142Z,11.50
2018-02-25T08:16:25.912Z,9.73
2018-02-25T08:18:54.226Z,9.47
2018-02-25T08:21:22.194Z,7.03
2018-02-25T08:23:49.960Z,8.37
2018-02-25T08:26:17.872Z,9.23
2018-02-25T08:28:46.048Z,8.27
2018-02-25T08:31:14.171Z,9.00
2018-02-25T08:33:41.828Z,9.03
2018-02-25T08:36:09.931Z,7.20
2018-02-25T08:38:38.086Z,7.50
2018-02-25T08:41:05.850Z,7.67
2018-02-25T08:43:33.858Z,9.53
2018-02-25T08:46:01.727Z,8.43
2018-02-25T08:48:29.263Z,6.90
2018-02-25T08:50:57.143Z,10.87
2018-02-25T08:53:25.177Z,7.53
2018-02-25T08:55:52.860Z,6.80
2018-02-25T08:58:20.488Z,7.23
2018-02-25T09:00:48.588Z,8.83
2018-02-25T09:03:16.295Z,11.87
2018-02-25T09:05:44.061Z,7.03
2018-02-25T09:08:11.667Z,9.47
2018-02-25T09:10:39.375Z,9.63
2018-02-25T09:13:07.061Z,9.63
2018-02-25T09:15:34.829Z,7.03
2018-02-25T09:18:02.512Z,8.03
2018-02-25T09:20:30.011Z,6.47
2018-02-25T09:22:58.749Z,11.03
2018-02-25T09:25:26.324Z,9.27
2018-02-25T09:27:54.129Z,15.00
2018-02-25T09:30:21.853Z,10.70
2018-02-25T09:32:49.824Z,7.47
2018-02-25T09:35:17.398Z,7.83
2018-02-25T09:37:45.284Z,4.60
2018-02-25T09:40:12.822Z,4.70
2018-02-25T09:42:40.378Z,5.60
2018-02-25T09:45:07.939Z,7.73
2018-02-25T09:47:35.726Z,8.27
2018-02-25T09:50:03.250Z,6.33
2018-02-25T09:55:28.573Z,10.83
2018-02-25T09:57:56.105Z,9.83
2018-02-25T10:00:23.623Z,4.53
2018-02-25T10:02:51.238Z,6.50
2018-02-25T10:05:18.753Z,4.63
2018-02-25T10:07:46.242Z,5.53
2018-02-25T10:10:13.791Z,5.73
2018-02-25T10:12:41.301Z,9.57
2018-02-25T10:15:08.822Z,4.83
2018-02-25T10:17:36.354Z,4.20
2018-02-25T10:20:03.898Z,4.33
2018-02-25T10:22:31.439Z,6.07
2018-02-25T10:24:59.234Z,4.90
2018-02-25T10:27:26.994Z,9.07
2018-02-25T10:29:54.563Z,3.97
2018-02-25T10:32:22.083Z,4.83
2018-02-25T10:34:49.604Z,4.50
2018-02-25T10:37:17.138Z,6.20
2018-02-25T10:39:44.686Z,4.13
2018-02-25T10:42:12.216Z,10.37
2018-02-25T10:44:39.734Z,5.67
2018-02-25T10:47:07.231Z,5.03
2018-02-25T10:49:35.912Z,5.53
2018-02-25T10:52:03.654Z,3.90
2018-02-25T10:54:31.153Z,4.83
2018-02-25T10:56:58.650Z,4.20
2018-02-25T10:59:26.135Z,5.17
2018-02-25T11:01:53.647Z,4.53
2018-02-25T11:04:21.274Z,5.10
2018-02-25T11:06:48.817Z,4.13
2018-02-25T11:09:16.302Z,4.27
2018-02-25T11:11:43.806Z,5.27
2018-02-25T11:14:11.299Z,3.43
2018-02-25T11:16:38.809Z,3.70
2018-02-25T11:19:06.327Z,4.20
2018-02-25T11:21:33.891Z,3.70
2018-02-25T11:24:01.396Z,3.53
2018-02-25T11:26:28.886Z,8.20
2018-02-25T11:28:56.374Z,4.43
2018-02-25T11:31:23.983Z,3.60
2018-02-25T11:33:51.399Z,4.47
2018-02-25T11:36:18.959Z,4.03
2018-02-25T11:38:47.356Z,5.60
2018-02-25T11:41:14.873Z,4.00
2018-02-25T11:43:42.365Z,3.43
2018-02-25T11:46:09.874Z,4.20
2018-02-25T11:48:37.380Z,4.23
2018-02-25T11:51:04.972Z,3.93
2018-02-25T11:53:32.554Z,4.00
2018-02-25T11:56:00.074Z,5.23
2018-02-25T11:58:27.666Z,4.33
2018-02-25T12:00:55.562Z,3.47
2018-02-25T12:03:23.167Z,5.37
2018-02-25T12:05:51.348Z,4.27
2018-02-25T12:08:18.916Z,3.80
2018-02-25T12:10:46.418Z,3.77
2018-02-25T12:13:14.104Z,4.17
2018-02-25T12:15:41.675Z,6.43
2018-02-25T12:18:09.202Z,5.60
2018-02-25T12:20:37.656Z,4.30
2018-02-25T12:23:05.398Z,4.63
2018-02-25T12:25:32.910Z,3.47
2018-02-25T12:28:00.394Z,4.20
2018-02-25T12:30:27.952Z,4.07
2018-02-25T12:32:55.444Z,3.73
2018-02-25T12:35:23.133Z,7.67
2018-02-25T12:37:50.635Z,4.27
2018-02-25T12:40:18.168Z,6.77
2018-02-25T12:42:45.715Z,4.00
2018-02-25T12:45:13.304Z,4.10
2018-02-25T12:47:40.870Z,3.93
2018-02-25T12:50:08.391Z,5.13
2018-02-25T12:52:35.979Z,3.60
2018-02-25T12:55:03.587Z,4.10
2018-02-25T12:57:31.122Z,5.27
2018-02-25T12:59:58.963Z,5.03
2018-02-25T13:02:26.515Z,3.60
2018-02-25T13:04:54.742Z,4.20
2018-02-25T13:07:22.325Z,4.83
2018-02-25T13:09:49.822Z,4.70
2018-02-25T13:12:17.351Z,3.73
2018-02-25T13:14:44.827Z,3.93
2018-02-25T13:17:12.484Z,4.20
2018-02-25T13:19:40.590Z,3.47
2018-02-25T13:22:08.094Z,3.50
2018-02-25T13:24:35.595Z,6.43
2018-02-25T13:27:03.193Z,3.87
2018-02-25T13:29:30.736Z,3.17
2018-02-25T13:31:58.284Z,3.40
2018-02-25T13:34:25.913Z,5.70
2018-02-25T13:36:53.366Z,3.67
2018-02-25T13:39:20.924Z,6.40
2018-02-25T13:41:48.417Z,3.80
2018-02-25T13:44:15.968Z,4.20
2018-02-25T13:46:43.501Z,4.50
2018-02-25T13:49:10.990Z,5.13
2018-02-25T13:51:38.716Z,5.30
2018-02-25T13:54:06.219Z,7.03
2018-02-25T13:56:33.746Z,4.93
2018-02-25T13:59:01.310Z,4.67
2018-02-25T14:01:28.809Z,3.70
2018-02-25T14:03:56.344Z,4.00
2018-02-25T14:06:23.947Z,3.20
2018-02-25T14:08:51.474Z,5.17
2018-02-25T14:11:19.009Z,4.43
2018-02-25T14:13:46.514Z,4.23
2018-02-25T14:16:14.144Z,3.60
2018-02-25T14:18:41.871Z,7.00
2018-02-25T14:21:09.550Z,4.13
2018-02-25T14:23:37.041Z,4.40
2018-02-25T14:26:04.559Z,5.17
2018-02-25T14:28:33.013Z,5.37
2018-02-25T14:31:00.532Z,3.20
2018-02-25T14:33:28.064Z,3.50
2018-02-25T14:35:55.616Z,5.43
2018-02-25T14:38:23.331Z,7.80
2018-02-25T14:40:50.870Z,4.23
2018-02-25T14:43:18.401Z,3.90
2018-02-25T14:45:45.913Z,4.03
2018-02-25T14:48:13.480Z,3.50
2018-02-25T14:50:40.976Z,6.57
2018-02-25T14:53:08.497Z,6.80
2018-02-25T14:55:36.025Z,4.10
2018-02-25T14:58:03.558Z,3.90
2018-02-25T15:00:31.091Z,4.70
2018-02-25T15:02:58.690Z,3.80
2018-02-25T15:05:26.223Z,3.90
2018-02-25T15:07:53.730Z,3.60
2018-02-25T15:10:24.128Z,4.30
2018-02-25T15:12:53.856Z,4.87
2018-02-25T15:15:21.505Z,4.83
2018-02-25T15:17:49.043Z,4.83
2018-02-25T15:20:16.656Z,5.43
2018-02-25T15:22:44.245Z,4.37
2018-02-25T15:25:11.747Z,4.17
2018-02-25T15:27:39.376Z,5.07
2018-02-25T15:30:11.624Z,3.50
2018-02-25T15:32:39.331Z,4.23
2018-02-25T15:35:06.932Z,5.00
2018-02-25T15:37:34.483Z,7.00
2018-02-25T15:40:02.224Z,4.50
2018-02-25T15:42:30.712Z,4.50
2018-02-25T15:44:59.003Z,5.47
2018-02-25T15:47:27.261Z,4.93
2018-02-25T15:49:54.747Z,6.07
2018-02-25T15:52:24.420Z,4.90
2018-02-25T15:54:51.923Z,4.80
2018-02-25T15:57:19.437Z,4.93
2018-02-25T15:59:47.123Z,4.97
2018-02-25T16:02:15.837Z,5.10
2018-02-25T16:04:43.399Z,5.90
2018-02-25T16:07:10.922Z,4.50
2018-02-25T16:09:38.466Z,5.83
2018-02-25T16:12:06.003Z,4.23
2018-02-25T16:14:33.620Z,5.60
2018-02-25T16:17:01.191Z,6.50
2018-02-25T16:19:28.814Z,7.03
2018-02-25T16:21:56.331Z,4.50
2018-02-25T16:24:23.890Z,6.10
2018-02-25T16:26:51.528Z,7.63
2018-02-25T16:29:19.121Z,5.63
2018-02-25T16:31:46.652Z,4.97
2018-02-25T16:34:14.644Z,6.23
2018-02-25T16:36:42.175Z,6.57
2018-02-25T16:39:10.115Z,6.13
2018-02-25T16:41:37.675Z,11.33
2018-02-25T16:44:05.193Z,8.20
2018-02-25T16:46:32.782Z,6.57
2018-02-25T16:49:00.302Z,7.30
2018-02-25T16:51:27.825Z,6.83
2018-02-25T16:53:55.370Z,6.50
2018-02-25T16:56:22.854Z,6.30
2018-02-25T16:58:50.369Z,6.30
2018-02-25T17:01:17.890Z,5.97
2018-02-25T17:03:45.471Z,6.30
2018-02-25T17:06:12.998Z,6.87
2018-02-25T17:08:40.525Z,6.00
2018-02-25T17:11:08.046Z,6.43
2018-02-25T17:13:35.612Z,7.03
2018-02-25T17:16:03.184Z,6.77
2018-02-25T17:18:30.697Z,7.37
2018-02-25T17:20:58.303Z,6.97
2018-02-25T17:23:25.836Z,8.83
2018-02-25T17:25:53.381Z,7.77
2018-02-25T17:28:20.872Z,6.60
2018-02-25T17:30:48.396Z,6.27
2018-02-25T17:33:15.934Z,10.57
2018-02-25T17:35:43.454Z,8.03
2018-02-25T17:38:11.022Z,7.83
2018-02-25T17:40:38.546Z,5.47
2018-02-25T17:43:06.135Z,7.57
2018-02-25T17:45:33.655Z,6.80
2018-02-25T17:48:01.182Z,11.23
2018-02-25T17:50:28.754Z,7.30
2018-02-25T17:52:56.304Z,6.50
2018-02-25T17:55:33.123Z,7.03
2018-02-25T17:57:51.389Z,8.50
2018-02-25T18:00:18.951Z,7.07
2018-02-25T18:02:46.497Z,7.33
2018-02-25T18:05:14.060Z,7.00
2018-02-25T18:07:41.586Z,8.63
2018-02-25T18:10:09.233Z,10.73
2018-02-25T18:12:36.748Z,8.47
2018-02-25T18:15:05.179Z,7.47
2018-02-25T18:17:32.764Z,8.10
2018-02-25T18:20:00.810Z,7.73
2018-02-25T18:22:28.360Z,10.10
2018-02-25T18:24:55.879Z,13.37
2018-02-25T18:27:23.424Z,10.63
2018-02-25T18:29:50.974Z,10.27
2018-02-25T18:32:18.467Z,10.63
2018-02-25T18:34:45.976Z,7.23
2018-02-25T18:37:13.841Z,9.43
2018-02-25T18:39:41.458Z,8.80
2018-02-25T18:42:09.253Z,7.97
2018-02-25T18:44:37.572Z,8.60
2018-02-25T18:47:05.109Z,9.50
2018-02-25T18:49:32.657Z,9.13
2018-02-25T18:52:00.236Z,10.03
2018-02-25T18:54:27.855Z,10.07
2018-02-25T18:56:57.359Z,8.33
2018-02-25T18:59:24.959Z,7.77
2018-02-25T19:01:52.470Z,8.50
2018-02-25T19:04:20.099Z,8.37
2018-02-25T19:06:47.728Z,12.10
2018-02-25T19:09:15.299Z,8.83
2018-02-25T19:11:42.804Z,10.97
2018-02-25T19:14:10.378Z,9.60
2018-02-25T19:16:37.885Z,8.07
2018-02-25T19:19:05.438Z,7.63
2018-02-25T19:21:32.952Z,8.23
2018-02-25T19:24:00.499Z,9.73
2018-02-25T19:26:28.266Z,10.93
2018-02-25T19:28:55.778Z,11.60
2018-02-25T19:31:23.782Z,8.70
2018-02-25T19:33:52.329Z,9.10
2018-02-25T19:36:25.370Z,11.53
2018-02-25T19:38:58.561Z,10.00
2018-02-25T19:41:31.596Z,8.53
2018-02-25T19:44:01.440Z,7.77
2018-02-25T19:46:29.003Z,9.70
2018-02-25T19:48:56.529Z,9.27
2018-02-25T19:51:24.024Z,8.73
2018-02-25T19:53:51.533Z,8.53
2018-02-25T19:56:19.085Z,8.70
2018-02-25T19:58:46.576Z,9.73
2018-02-25T20:01:14.062Z,8.57
2018-02-25T20:03:41.657Z,8.63
2018-02-25T20:06:09.181Z,9.97
2018-02-25T20:08:36.724Z,11.73
2018-02-25T20:11:04.343Z,10.47
2018-02-25T20:13:31.917Z,10.63
2018-02-25T20:15:59.480Z,14.53
2018-02-25T20:18:27.045Z,10.70
2018-02-25T20:20:54.629Z,9.90
2018-02-25T20:23:22.261Z,12.10
2018-02-25T20:25:49.825Z,12.17
2018-02-25T20:28:17.422Z,12.37
2018-02-25T20:30:45.142Z,11.57
2018-02-25T20:33:12.648Z,11.83
2018-02-25T20:35:40.241Z,10.50
2018-02-25T20:38:07.833Z,11.77
2018-02-25T20:40:35.368Z,13.03
2018-02-25T20:43:02.992Z,14.90
2018-02-25T20:45:30.622Z,12.63
2018-02-25T20:47:58.173Z,12.47
2018-02-25T20:50:25.690Z,13.13
2018-02-25T20:52:53.216Z,13.40
2018-02-25T20:55:20.696Z,14.43
2018-02-25T20:57:48.250Z,15.73
2018-02-25T21:00:15.934Z,12.83
2018-02-25T21:02:44.171Z,13.43
2018-02-25T21:05:11.757Z,14.37
2018-02-25T21:07:39.328Z,12.70
2018-02-25T21:10:07.054Z,15.13
2018-02-25T21:12:34.815Z,13.90
2018-02-25T21:15:02.353Z,16.93
2018-02-25T21:17:29.932Z,12.23
2018-02-25T21:19:57.490Z,11.50
2018-02-25T21:22:25.014Z,14.40
2018-02-25T21:24:52.573Z,12.20
2018-02-25T21:27:20.103Z,18.37
2018-02-25T21:29:47.774Z,14.13
2018-02-25T21:32:15.589Z,14.37
2018-02-25T21:34:43.090Z,14.10
2018-02-25T21:37:10.634Z,14.57
2018-02-25T21:39:38.172Z,12.67
2018-02-25T21:42:05.773Z,15.70
2018-02-25T21:44:33.349Z,14.77
2018-02-25T21:47:00.911Z,15.67
2018-02-25T21:49:28.459Z,16.30
2018-02-25T21:51:56.067Z,16.30
2018-02-25T21:54:29.190Z,14.57
2018-02-25T21:57:02.355Z,13.43
2018-02-25T21:59:35.440Z,17.23
2018-02-25T22:02:08.675Z,12.83
2018-02-25T22:04:36.230Z,14.60
2018-02-25T22:07:03.807Z,14.10
2018-02-25T22:09:31.416Z,12.27
2018-02-25T22:12:12.098Z,12.17
2018-02-25T22:14:39.618Z,11.70
2018-02-25T22:17:07.161Z,13.67
2018-02-25T22:19:34.973Z,15.80
2018-02-25T22:22:02.539Z,11.13
2018-02-25T22:24:30.076Z,11.30
2018-02-25T22:26:57.615Z,13.37
2018-02-25T22:29:25.134Z,14.13
2018-02-25T22:31:52.773Z,16.77
2018-02-25T22:34:20.358Z,12.00
2018-02-25T22:36:47.954Z,13.37
2018-02-25T22:39:15.492Z,9.20
2018-02-25T22:41:45.995Z,13.93
2018-02-25T22:44:13.647Z,9.53
2018-02-25T22:46:41.209Z,10.57
2018-02-25T22:49:08.783Z,9.13
2018-02-25T22:51:36.357Z,9.30
2018-02-25T22:54:03.916Z,8.57
2018-02-25T22:56:31.450Z,11.37
2018-02-25T22:58:59.032Z,12.20
2018-02-25T23:01:26.563Z,7.27
2018-02-25T23:03:54.095Z,11.57
2018-02-25T23:06:21.649Z,6.87
2018-02-25T23:08:51.702Z,8.73
2018-02-25T23:11:19.236Z,7.57
2018-02-25T23:13:46.815Z,7.67
2018-02-25T23:16:14.386Z,8.03
2018-02-25T23:18:41.893Z,8.07
2018-02-25T23:21:09.509Z,7.10
2018-02-25T23:23:37.067Z,6.80
2018-02-25T23:26:04.593Z,7.43
2018-02-25T23:28:32.083Z,6.07
2018-02-25T23:30:59.637Z,6.27
2018-02-25T23:33:27.205Z,5.20
2018-02-25T23:35:54.759Z,3.90
2018-02-25T23:38:22.279Z,7.23
2018-02-25T23:40:49.849Z,7.87
2018-02-25T23:43:17.823Z,6.90
2018-02-25T23:45:45.346Z,5.90
2018-02-25T23:48:12.968Z,6.03
2018-02-25T23:50:40.664Z,5.63
2018-02-25T23:53:08.209Z,6.13
2018-02-25T23:55:35.770Z,6.80
2018-02-25T23:58:03.305Z,6.73
